Time;durP1;ratioP1;P1;durP2;ratioP2;P2;SDS_P1;SDS_P2;PMS_P1;PMS_P2;Temp;Humidity;BMP_temperature;BMP_pressure;BME280_temperature;BME280_humidity;BME280_pressure;Samples;Min_cycle;Max_cycle;Signal;HPM_P1;HPM_P2
2022/05/11 00:00:33;;;;;;;12.65;11.35;;;;;;;;;;5017217;28;20398;-56
2022/05/11 00:03:00;;;;;;;14.25;11.40;;;;;;;;;;5018334;28;20383;-52
2022/05/11 00:05:26;;;;;;;13.10;11.70;;;;;;;;;;5018941;28;20387;-54
2022/05/11 00:07:52;;;;;;;13.35;11.10;;;;;;;;;;5018087;28;20789;-56
2022/05/11 00:10:18;;;;;;;13.00;11.38;;;;;;;;;;5016256;28;20418;-56
2022/05/11 00:12:46;;;;;;;15.00;10.68;;;;;;;;;;5016740;28;20503;-56
2022/05/11 00:15:13;;;;;;;14.40;11.43;;;;;;;;;;5016316;28;20814;-55
2022/05/11 00:17:39;;;;;;;14.60;12.18;;;;;;;;;;5032409;28;20462;-54
2022/05/11 00:20:07;;;;;;;12.55;11.10;;;;;;;;;;5016262;28;20483;-55
2022/05/11 00:22:34;;;;;;;13.43;11.25;;;;;;;;;;5033900;28;20379;-56
2022/05/11 00:25:00;;;;;;;12.82;11.50;;;;;;;;;;5018047;28;20391;-53
2022/05/11 00:27:26;;;;;;;13.52;11.40;;;;;;;;;;5020346;28;20387;-54
2022/05/11 00:29:52;;;;;;;12.57;10.95;;;;;;;;;;5019946;28;20398;-55
2022/05/11 00:32:18;;;;;;;14.88;11.07;;;;;;;;;;5019636;28;20407;-52
2022/05/11 00:34:44;;;;;;;13.25;10.90;;;;;;;;;;5019658;28;20375;-56
2022/05/11 00:37:10;;;;;;;14.23;11.60;;;;;;;;;;5017355;28;20391;-53
2022/05/11 00:39:36;;;;;;;14.40;11.73;;;;;;;;;;5016537;28;20394;-50
2022/05/11 00:42:03;;;;;;;12.25;10.98;;;;;;;;;;5033964;28;20430;-53
2022/05/11 00:44:29;;;;;;;13.43;11.48;;;;;;;;;;5017003;28;20963;-54
2022/05/11 00:47:04;;;;;;;12.35;10.75;;;;;;;;;;5016941;28;20391;-56
2022/05/11 00:49:38;;;;;;;13.57;12.18;;;;;;;;;;5017159;28;20652;-56
2022/05/11 00:52:15;;;;;;;12.45;11.15;;;;;;;;;;5016707;28;20427;-52
2022/05/11 00:54:42;;;;;;;12.65;11.32;;;;;;;;;;5035619;28;20401;-51
2022/05/11 00:57:13;;;;;;;12.35;10.80;;;;;;;;;;5015863;28;20391;-55
2022/05/11 00:59:42;;;;;;;12.43;11.00;;;;;;;;;;5017802;28;20387;-54
2022/05/11 01:02:08;;;;;;;12.52;10.73;;;;;;;;;;5015126;28;20702;-59
2022/05/11 01:04:37;;;;;;;12.98;11.07;;;;;;;;;;5030448;28;20392;-54
2022/05/11 01:07:04;;;;;;;12.00;10.52;;;;;;;;;;5016248;28;20759;-52
2022/05/11 01:09:30;;;;;;;12.57;11.10;;;;;;;;;;5015181;28;20438;-53
2022/05/11 01:11:58;;;;;;;13.40;11.70;;;;;;;;;;5032588;28;20437;-54
2022/05/11 01:14:27;;;;;;;12.63;11.13;;;;;;;;;;5016295;28;20675;-51
2022/05/11 01:16:54;;;;;;;13.95;10.95;;;;;;;;;;5016376;28;20790;-55
2022/05/11 01:19:26;;;;;;;12.70;10.60;;;;;;;;;;5033652;28;20442;-48
2022/05/11 01:21:56;;;;;;;11.57;10.40;;;;;;;;;;5016879;28;20783;-54
2022/05/11 01:24:26;;;;;;;12.40;11.15;;;;;;;;;;5034094;28;20389;-56
2022/05/11 01:26:52;;;;;;;12.68;11.25;;;;;;;;;;5015454;28;20505;-53
2022/05/11 01:29:18;;;;;;;11.47;10.37;;;;;;;;;;5033314;28;20398;-53
2022/05/11 01:31:44;;;;;;;13.90;10.90;;;;;;;;;;5013838;28;20411;-55
2022/05/11 01:34:10;;;;;;;12.07;10.77;;;;;;;;;;5013301;28;20524;-51
2022/05/11 01:36:36;;;;;;;13.47;10.73;;;;;;;;;;5014240;28;20434;-52
2022/05/11 01:39:03;;;;;;;13.90;11.10;;;;;;;;;;5012528;28;20671;-53
2022/05/11 01:41:35;;;;;;;13.38;11.13;;;;;;;;;;5011416;28;20390;-54
2022/05/11 01:44:04;;;;;;;12.07;10.77;;;;;;;;;;5028895;28;20445;-56
2022/05/11 01:46:30;;;;;;;11.48;9.90;;;;;;;;;;5011833;28;20671;-53
2022/05/11 01:48:56;;;;;;;13.50;10.80;;;;;;;;;;5031053;28;20683;-54
2022/05/11 01:51:29;;;;;;;11.52;10.32;;;;;;;;;;5028822;28;20805;-56
2022/05/11 01:54:14;;;;;;;11.70;10.43;;;;;;;;;;5013674;28;20630;-52
2022/05/11 01:56:40;;;;;;;10.57;9.40;;;;;;;;;;5014191;28;20470;-49
2022/05/11 01:59:06;;;;;;;10.95;9.73;;;;;;;;;;5033198;28;20391;-56
2022/05/11 02:01:34;;;;;;;11.68;10.27;;;;;;;;;;5032430;28;20390;-53
2022/05/11 02:04:00;;;;;;;13.05;9.77;;;;;;;;;;5012947;28;20383;-53
2022/05/11 02:09:44;;;;;;;12.23;10.93;;;;;;;;;;5030247;28;20385;-54
2022/05/11 02:12:14;;;;;;;13.60;10.60;;;;;;;;;;5027460;28;20399;-54
2022/05/11 02:14:40;;;;;;;11.13;10.02;;;;;;;;;;5010536;28;20398;-54
2022/05/11 02:17:06;;;;;;;11.85;10.60;;;;;;;;;;5009926;28;20679;-52
2022/05/11 02:19:33;;;;;;;12.00;10.05;;;;;;;;;;5009770;28;20398;-54
2022/05/11 02:21:59;;;;;;;10.90;9.75;;;;;;;;;;5009582;28;20751;-54
2022/05/11 02:24:25;;;;;;;11.07;9.63;;;;;;;;;;5009190;28;20545;-55
2022/05/11 02:27:00;;;;;;;13.20;10.30;;;;;;;;;;5027657;28;20422;-54
2022/05/11 02:29:26;;;;;;;10.38;9.30;;;;;;;;;;5011484;28;20391;-51
2022/05/11 02:32:20;;;;;;;10.15;9.10;;;;;;;;;;5030321;28;20896;-52
2022/05/11 02:37:33;;;;;;;11.00;9.63;;;;;;;;;;5032527;28;20445;-57
2022/05/11 02:40:00;;;;;;;10.90;9.70;;;;;;;;;;5032970;28;20782;-54
2022/05/11 02:42:26;;;;;;;11.23;9.80;;;;;;;;;;5033689;28;20490;-54
2022/05/11 02:44:53;;;;;;;11.05;9.88;;;;;;;;;;5033406;28;20387;-54
2022/05/11 02:47:19;;;;;;;11.73;9.67;;;;;;;;;;5014498;28;20837;-52
2022/05/11 02:49:45;;;;;;;12.07;10.73;;;;;;;;;;5013294;28;20531;-55
2022/05/11 02:52:14;;;;;;;11.80;10.60;;;;;;;;;;5008901;28;20507;-56
2022/05/11 02:54:40;;;;;;;11.68;10.40;;;;;;;;;;5010749;28;20395;-56
2022/05/11 02:57:06;;;;;;;11.30;9.65;;;;;;;;;;5009257;28;20397;-55
2022/05/11 02:59:32;;;;;;;11.90;9.20;;;;;;;;;;5008967;28;20859;-55
2022/05/11 03:01:58;;;;;;;11.73;9.38;;;;;;;;;;5010738;28;20439;-54
2022/05/11 03:04:25;;;;;;;11.82;10.05;;;;;;;;;;5012655;28;20388;-54
2022/05/11 03:06:50;;;;;;;11.13;9.95;;;;;;;;;;5012155;28;20642;-53
2022/05/11 03:09:17;;;;;;;10.57;9.43;;;;;;;;;;5010895;28;20863;-56
2022/05/11 03:11:44;;;;;;;11.23;10.13;;;;;;;;;;5008967;28;21049;-52
2022/05/11 03:14:10;;;;;;;12.43;9.73;;;;;;;;;;5009246;28;20691;-56
2022/05/11 03:16:37;;;;;;;11.60;10.18;;;;;;;;;;5009067;28;20416;-54
2022/05/11 03:19:03;;;;;;;11.18;10.07;;;;;;;;;;5009961;28;20472;-55
2022/05/11 03:21:29;;;;;;;11.30;10.07;;;;;;;;;;5009135;28;20385;-56
2022/05/11 03:23:55;;;;;;;13.90;10.80;;;;;;;;;;5009209;28;20455;-49
2022/05/11 03:26:24;;;;;;;12.73;10.43;;;;;;;;;;5010931;28;20819;-54
2022/05/11 03:28:50;;;;;;;12.43;11.02;;;;;;;;;;5013360;28;20406;-53
2022/05/11 03:31:17;;;;;;;12.05;10.80;;;;;;;;;;5012863;28;20384;-56
2022/05/11 03:36:28;;;;;;;11.25;10.07;;;;;;;;;;5016059;28;20665;-54
2022/05/11 03:38:54;;;;;;;10.75;9.63;;;;;;;;;;5014288;28;20777;-54
2022/05/11 03:41:20;;;;;;;10.10;9.10;;;;;;;;;;5014389;28;20392;-54
2022/05/11 03:43:46;;;;;;;10.40;9.40;;;;;;;;;;5016162;28;20559;-56
2022/05/11 03:46:12;;;;;;;12.30;10.03;;;;;;;;;;5014774;28;20389;-56
2022/05/11 03:48:38;;;;;;;11.27;10.03;;;;;;;;;;5016934;28;20432;-55
2022/05/11 03:51:04;;;;;;;10.73;9.63;;;;;;;;;;5014975;28;20409;-61
2022/05/11 03:53:31;;;;;;;10.07;9.15;;;;;;;;;;5017227;28;20412;-52
2022/05/11 03:55:57;;;;;;;9.07;8.15;;;;;;;;;;5013818;28;20392;-54
2022/05/11 03:58:23;;;;;;;10.52;9.43;;;;;;;;;;5010991;28;20507;-56
2022/05/11 04:00:50;;;;;;;10.90;9.55;;;;;;;;;;5010629;28;20533;-53
2022/05/11 04:03:16;;;;;;;10.60;9.50;;;;;;;;;;5011581;28;20388;-56
2022/05/11 04:05:42;;;;;;;10.18;9.13;;;;;;;;;;5008590;28;20590;-53
2022/05/11 04:08:09;;;;;;;11.07;9.18;;;;;;;;;;5009740;28;20393;-54
2022/05/11 04:10:35;;;;;;;11.77;9.33;;;;;;;;;;5011203;28;20391;-52
2022/05/11 04:13:01;;;;;;;9.70;8.70;;;;;;;;;;5009529;28;20831;-55
2022/05/11 04:15:27;;;;;;;10.95;9.85;;;;;;;;;;5010336;28;20951;-54
2022/05/11 04:17:53;;;;;;;11.65;10.20;;;;;;;;;;5010740;28;20764;-52
2022/05/11 04:20:20;;;;;;;11.40;9.60;;;;;;;;;;5010886;28;20420;-53
2022/05/11 04:22:47;;;;;;;11.63;9.52;;;;;;;;;;5011994;28;20475;-56
2022/05/11 04:25:15;;;;;;;10.73;9.57;;;;;;;;;;5013299;28;20410;-55
2022/05/11 04:27:41;;;;;;;10.45;9.45;;;;;;;;;;5012168;28;20800;-55
2022/05/11 04:30:07;;;;;;;11.77;10.02;;;;;;;;;;5012422;28;20423;-55
2022/05/11 04:32:33;;;;;;;13.45;11.05;;;;;;;;;;5012257;28;20412;-56
2022/05/11 04:34:59;;;;;;;12.77;10.73;;;;;;;;;;5013459;28;20384;-53
2022/05/11 04:37:25;;;;;;;13.50;10.35;;;;;;;;;;5012815;28;20381;-54
2022/05/11 04:39:51;;;;;;;11.07;9.98;;;;;;;;;;5012898;28;20471;-56
2022/05/11 04:42:17;;;;;;;11.30;10.20;;;;;;;;;;5012719;28;20464;-51
2022/05/11 04:44:43;;;;;;;10.90;8.95;;;;;;;;;;5013127;28;20699;-57
2022/05/11 04:47:10;;;;;;;11.18;9.95;;;;;;;;;;5011257;28;20409;-56
2022/05/11 04:49:37;;;;;;;13.18;10.90;;;;;;;;;;5010753;28;20483;-57
2022/05/11 04:52:07;;;;;;;11.23;9.90;;;;;;;;;;5010487;28;20421;-56
2022/05/11 04:54:34;;;;;;;13.82;11.15;;;;;;;;;;5011225;28;20402;-56
2022/05/11 04:57:00;;;;;;;13.48;10.63;;;;;;;;;;5010529;28;20381;-56
2022/05/11 04:59:26;;;;;;;13.20;11.80;;;;;;;;;;5012857;28;20650;-54
2022/05/11 05:01:52;;;;;;;10.95;9.85;;;;;;;;;;5011794;28;20821;-51
2022/05/11 05:04:19;;;;;;;11.48;10.27;;;;;;;;;;5011568;28;20404;-52
2022/05/11 05:06:45;;;;;;;14.03;10.93;;;;;;;;;;5011573;28;20797;-57
2022/05/11 05:09:11;;;;;;;11.57;10.52;;;;;;;;;;5010510;28;20443;-52
2022/05/11 05:11:37;;;;;;;13.82;11.30;;;;;;;;;;5009254;28;20685;-50
2022/05/11 05:14:05;;;;;;;11.50;10.40;;;;;;;;;;5011802;28;20384;-53
2022/05/11 05:16:31;;;;;;;13.95;11.60;;;;;;;;;;5009540;28;20459;-55
2022/05/11 05:18:57;;;;;;;11.73;10.52;;;;;;;;;;5008935;28;20385;-55
2022/05/11 05:21:23;;;;;;;15.10;11.50;;;;;;;;;;5009865;28;20407;-54
2022/05/11 05:23:55;;;;;;;13.63;12.20;;;;;;;;;;5008138;28;20381;-51
2022/05/11 05:26:22;;;;;;;13.80;11.23;;;;;;;;;;5007564;28;20377;-54
2022/05/11 05:31:32;;;;;;;12.47;11.17;;;;;;;;;;5008780;28;20400;-50
2022/05/11 05:34:01;;;;;;;14.10;12.10;;;;;;;;;;5007551;28;20385;-54
2022/05/11 05:36:28;;;;;;;13.70;12.30;;;;;;;;;;5008181;28;20657;-56
2022/05/11 05:38:54;;;;;;;11.25;10.15;;;;;;;;;;5006623;28;20384;-54
2022/05/11 05:41:21;;;;;;;12.98;10.85;;;;;;;;;;5008528;28;20463;-55
2022/05/11 05:43:47;;;;;;;14.07;12.25;;;;;;;;;;5007075;28;20758;-57
2022/05/11 05:46:14;;;;;;;11.88;10.68;;;;;;;;;;5007803;28;20427;-52
2022/05/11 05:48:41;;;;;;;12.25;10.95;;;;;;;;;;5009829;28;20391;-56
2022/05/11 05:51:08;;;;;;;14.33;11.60;;;;;;;;;;5009891;28;20520;-55
2022/05/11 05:53:34;;;;;;;12.13;10.73;;;;;;;;;;5010999;28;20504;-57
2022/05/11 05:56:01;;;;;;;12.07;10.80;;;;;;;;;;5010049;28;20469;-54
2022/05/11 05:58:27;;;;;;;14.35;11.60;;;;;;;;;;5008016;28;20604;-53
2022/05/11 06:00:53;;;;;;;12.10;10.90;;;;;;;;;;5008821;28;20388;-55
2022/05/11 06:06:23;;;;;;;12.55;10.57;;;;;;;;;;5009208;28;20367;-56
2022/05/11 06:08:49;;;;;;;14.47;11.43;;;;;;;;;;5006158;28;20392;-53
2022/05/11 06:11:15;;;;;;;11.07;9.57;;;;;;;;;;5006704;28;20480;-56
2022/05/11 06:13:45;;;;;;;14.77;11.23;;;;;;;;;;5007050;28;20690;-55
2022/05/11 06:16:13;;;;;;;11.52;9.50;;;;;;;;;;5007606;28;20642;-53
2022/05/11 06:18:41;;;;;;;11.07;9.88;;;;;;;;;;5006086;28;20392;-54
2022/05/11 06:21:07;;;;;;;10.60;9.35;;;;;;;;;;5004702;28;20691;-54
2022/05/11 06:23:33;;;;;;;11.60;10.45;;;;;;;;;;5003757;28;20385;-55
2022/05/11 06:25:59;;;;;;;12.38;11.07;;;;;;;;;;5003126;28;20403;-55
2022/05/11 06:28:25;;;;;;;12.73;10.88;;;;;;;;;;5000439;28;20418;-57
2022/05/11 06:30:51;;;;;;;11.88;10.68;;;;;;;;;;4998668;28;20800;-53
2022/05/11 06:33:17;;;;;;;15.60;11.48;;;;;;;;;;4996279;28;20605;-55
2022/05/11 06:35:43;;;;;;;13.18;10.70;;;;;;;;;;4995128;28;20389;-53
2022/05/11 06:38:10;;;;;;;10.98;9.88;;;;;;;;;;4998533;28;20740;-55
2022/05/11 06:40:36;;;;;;;10.98;9.88;;;;;;;;;;4999177;28;20833;-51
2022/05/11 06:43:02;;;;;;;16.20;12.15;;;;;;;;;;4999943;28;20680;-55
2022/05/11 06:45:28;;;;;;;15.15;11.55;;;;;;;;;;4998113;28;20385;-56
2022/05/11 06:47:54;;;;;;;14.63;12.82;;;;;;;;;;5000484;28;20696;-51
2022/05/11 06:50:21;;;;;;;13.70;12.30;;;;;;;;;;5006746;28;20380;-53
2022/05/11 06:52:47;;;;;;;15.82;13.20;;;;;;;;;;5007614;28;20927;-49
2022/05/11 07:00:43;;;;;;;13.75;11.55;;;;;;;;;;5005039;28;20465;-56
2022/05/11 07:03:09;;;;;;;17.25;12.20;;;;;;;;;;5008677;28;20785;-54
2022/05/11 07:05:36;;;;;;;13.05;11.70;;;;;;;;;;5009714;28;20524;-53
2022/05/11 07:08:02;;;;;;;12.88;11.38;;;;;;;;;;5011387;28;20444;-54
2022/05/11 07:10:28;;;;;;;14.68;11.55;;;;;;;;;;5010679;28;20397;-55
2022/05/11 07:12:54;;;;;;;13.35;11.20;;;;;;;;;;5010442;28;20647;-57
2022/05/11 07:15:21;;;;;;;13.13;11.75;;;;;;;;;;5010534;28;20397;-54
2022/05/11 07:17:52;;;;;;;14.90;10.50;;;;;;;;;;5011070;28;20408;-54
2022/05/11 07:20:18;;;;;;;13.05;10.80;;;;;;;;;;5009447;28;20377;-56
2022/05/11 07:22:45;;;;;;;13.05;10.45;;;;;;;;;;5010469;28;20466;-54
2022/05/11 07:25:12;;;;;;;12.30;9.95;;;;;;;;;;5011184;28;20420;-54
2022/05/11 07:27:39;;;;;;;12.65;9.52;;;;;;;;;;5008236;28;20396;-56
2022/05/11 07:30:06;;;;;;;15.20;10.23;;;;;;;;;;5009410;28;20782;-53
2022/05/11 07:32:32;;;;;;;12.98;9.65;;;;;;;;;;5010124;28;20882;-52
2022/05/11 07:34:58;;;;;;;11.63;10.10;;;;;;;;;;5011317;28;20397;-55
2022/05/11 07:37:24;;;;;;;13.60;10.13;;;;;;;;;;5009472;28;20784;-55
2022/05/11 07:40:14;;;;;;;14.63;9.98;;;;;;;;;;5008482;28;20805;-54
2022/05/11 07:43:02;;;;;;;10.82;9.27;;;;;;;;;;5009310;28;20555;-56
2022/05/11 07:45:31;;;;;;;11.15;9.80;;;;;;;;;;5009287;28;20439;-53
2022/05/11 07:48:22;;;;;;;11.32;9.57;;;;;;;;;;5008527;28;20412;-56
2022/05/11 07:50:48;;;;;;;10.27;9.07;;;;;;;;;;5017017;28;20431;-54
2022/05/11 07:53:14;;;;;;;10.77;9.17;;;;;;;;;;5015574;28;20490;-54
2022/05/11 07:55:40;;;;;;;13.13;9.55;;;;;;;;;;5033591;28;20383;-53
2022/05/11 08:00:51;;;;;;;10.93;9.00;;;;;;;;;;5033606;28;20382;-62
2022/05/11 08:03:17;;;;;;;13.03;8.30;;;;;;;;;;5031518;28;20383;-63
2022/05/11 08:05:43;;;;;;;11.23;8.27;;;;;;;;;;5014757;28;20464;-63
2022/05/11 08:08:09;;;;;;;10.80;7.73;;;;;;;;;;5015262;28;20574;-55
2022/05/11 08:10:38;;;;;;;9.80;7.80;;;;;;;;;;5012315;28;20398;-57
2022/05/11 08:13:07;;;;;;;10.95;7.82;;;;;;;;;;5012770;28;20520;-54
2022/05/11 08:16:07;;;;;;;12.82;7.50;;;;;;;;;;5011312;28;20426;-55
2022/05/11 08:21:37;;;;;;;10.65;7.45;;;;;;;;;;5032920;28;20452;-53
2022/05/11 08:24:03;;;;;;;13.25;7.88;;;;;;;;;;5030910;28;20414;-56
2022/05/11 08:26:40;;;;;;;8.48;7.13;;;;;;;;;;5009490;28;20822;-54
2022/05/11 08:34:51;;;;;;;9.77;7.05;;;;;;;;;;5027053;28;20378;-52
2022/05/11 08:37:18;;;;;;;9.48;7.35;;;;;;;;;;5009406;28;20537;-55
2022/05/11 08:39:44;;;;;;;10.63;7.40;;;;;;;;;;5010704;28;20391;-57
2022/05/11 08:42:11;;;;;;;11.25;7.70;;;;;;;;;;5007540;28;20396;-55
2022/05/11 08:44:41;;;;;;;12.27;7.43;;;;;;;;;;5009082;28;20441;-56
2022/05/11 08:47:23;;;;;;;13.37;8.00;;;;;;;;;;5007779;28;20426;-51
2022/05/11 08:49:52;;;;;;;9.45;7.88;;;;;;;;;;5026255;28;20387;-54
2022/05/11 08:52:38;;;;;;;11.65;7.80;;;;;;;;;;5010867;28;20459;-53
2022/05/11 08:55:09;;;;;;;8.90;7.40;;;;;;;;;;5009350;28;20715;-54
2022/05/11 08:57:36;;;;;;;10.40;7.60;;;;;;;;;;5010407;28;20384;-55
2022/05/11 09:00:21;;;;;;;9.93;7.75;;;;;;;;;;5027132;28;20378;-52
2022/05/11 09:02:47;;;;;;;10.37;7.63;;;;;;;;;;5008047;28;20387;-53
2022/05/11 09:05:14;;;;;;;11.35;7.38;;;;;;;;;;5005850;28;20395;-54
2022/05/11 09:07:41;;;;;;;9.55;7.60;;;;;;;;;;5024906;28;20399;-53
2022/05/11 09:10:08;;;;;;;14.88;7.93;;;;;;;;;;5006884;28;20383;-51
2022/05/11 09:12:34;;;;;;;9.73;6.53;;;;;;;;;;5026398;28;20750;-53
2022/05/11 09:15:01;;;;;;;8.20;7.03;;;;;;;;;;5007626;28;20558;-54
2022/05/11 09:17:27;;;;;;;11.80;7.47;;;;;;;;;;5006800;28;20679;-54
2022/05/11 09:20:01;;;;;;;11.95;7.53;;;;;;;;;;5007553;28;20666;-51
2022/05/11 09:22:27;;;;;;;8.93;6.85;;;;;;;;;;5009966;28;20453;-56
2022/05/11 09:24:56;;;;;;;9.32;6.40;;;;;;;;;;5009810;28;20410;-55
2022/05/11 09:27:36;;;;;;;10.90;6.70;;;;;;;;;;5024610;28;20383;-55
2022/05/11 09:30:07;;;;;;;11.57;6.97;;;;;;;;;;5025820;28;20394;-54
2022/05/11 09:32:38;;;;;;;9.20;6.95;;;;;;;;;;5007375;28;20399;-53
2022/05/11 09:35:19;;;;;;;10.10;7.53;;;;;;;;;;5008495;28;20456;-54
2022/05/11 09:37:54;;;;;;;11.45;7.95;;;;;;;;;;5005901;28;20439;-53
2022/05/11 09:40:21;;;;;;;8.83;7.47;;;;;;;;;;5008508;28;20492;-56
2022/05/11 09:42:55;;;;;;;8.23;6.80;;;;;;;;;;5014376;28;20538;-49
2022/05/11 09:54:51;;;;;;;8.53;6.17;;;;;;;;;;4985017;28;20434;-53
2022/05/11 09:57:23;;;;;;;7.82;5.80;;;;;;;;;;4982754;28;20970;-55
2022/05/11 09:59:51;;;;;;;9.32;5.95;;;;;;;;;;4982314;28;20387;-54
2022/05/11 10:02:26;;;;;;;8.88;5.93;;;;;;;;;;4983318;28;20386;-54
2022/05/11 10:05:10;;;;;;;8.48;5.60;;;;;;;;;;4981671;28;20383;-54
2022/05/11 10:07:40;;;;;;;8.38;5.90;;;;;;;;;;4983326;28;21008;-52
2022/05/11 10:10:16;;;;;;;7.45;5.32;;;;;;;;;;4984014;28;20397;-54
2022/05/11 10:12:44;;;;;;;6.30;5.10;;;;;;;;;;4982893;28;20925;-53
2022/05/11 10:23:52;;;;;;;7.00;4.47;;;;;;;;;;4989711;28;20370;-55
2022/05/11 10:26:25;;;;;;;11.38;5.07;;;;;;;;;;4989669;28;20391;-50
2022/05/11 10:28:56;;;;;;;6.18;4.95;;;;;;;;;;4993530;28;20390;-54
2022/05/11 10:32:00;;;;;;;9.93;5.50;;;;;;;;;;4991882;28;20425;-53
2022/05/11 10:34:35;;;;;;;7.22;5.80;;;;;;;;;;4990675;28;20457;-54
2022/05/11 10:37:23;;;;;;;8.37;5.77;;;;;;;;;;4990168;28;20531;-55
2022/05/11 10:43:08;;;;;;;7.95;5.43;;;;;;;;;;4990490;28;20446;-54
2022/05/11 10:45:42;;;;;;;9.68;5.38;;;;;;;;;;4988518;28;20391;-55
2022/05/11 10:48:25;;;;;;;8.13;5.22;;;;;;;;;;4988391;28;20386;-55
2022/05/11 10:51:25;;;;;;;5.47;4.55;;;;;;;;;;4989568;28;20391;-53
2022/05/11 10:57:25;;;;;;;6.20;4.97;;;;;;;;;;5008263;28;20419;-53
2022/05/11 11:00:12;;;;;;;11.32;5.60;;;;;;;;;;5009387;28;20514;-55
2022/05/11 11:03:01;;;;;;;6.78;5.20;;;;;;;;;;5008423;28;20411;-53
2022/05/11 11:05:32;;;;;;;7.20;5.40;;;;;;;;;;5009017;28;21253;-54
2022/05/11 11:08:11;;;;;;;6.83;5.10;;;;;;;;;;5011080;28;20952;-53
2022/05/11 11:10:37;;;;;;;7.38;5.10;;;;;;;;;;5010758;28;20676;-55
2022/05/11 11:13:09;;;;;;;7.95;5.78;;;;;;;;;;5008294;28;20408;-54
2022/05/11 11:15:37;;;;;;;7.90;5.50;;;;;;;;;;5007718;28;20389;-55
2022/05/11 11:18:04;;;;;;;8.23;5.72;;;;;;;;;;5009127;28;20415;-51
2022/05/11 11:20:31;;;;;;;8.48;5.60;;;;;;;;;;5006275;28;20540;-55
2022/05/11 11:23:06;;;;;;;6.65;5.40;;;;;;;;;;5006536;28;20416;-55
2022/05/11 11:25:46;;;;;;;9.05;5.32;;;;;;;;;;5010416;28;20499;-52
2022/05/11 11:28:18;;;;;;;10.65;5.60;;;;;;;;;;5010501;28;20381;-52
2022/05/11 11:31:00;;;;;;;7.85;5.22;;;;;;;;;;5004443;28;20684;-56
2022/05/11 11:33:30;;;;;;;7.85;5.22;;;;;;;;;;5003849;28;20659;-56
2022/05/11 11:35:58;;;;;;;6.43;5.40;;;;;;;;;;5002962;28;20458;-52
2022/05/11 11:38:47;;;;;;;10.07;5.53;;;;;;;;;;5003024;28;20476;-52
2022/05/11 11:41:13;;;;;;;9.18;5.20;;;;;;;;;;5000434;28;20625;-53
2022/05/11 11:43:43;;;;;;;12.73;6.15;;;;;;;;;;5002276;28;20637;-55
2022/05/11 11:46:09;;;;;;;8.30;6.30;;;;;;;;;;5000657;28;20393;-51
2022/05/11 11:48:36;;;;;;;9.80;5.87;;;;;;;;;;5000116;28;20604;-55
2022/05/11 11:51:04;;;;;;;9.90;6.20;;;;;;;;;;5004373;28;20384;-50
2022/05/11 11:53:36;;;;;;;7.35;6.00;;;;;;;;;;5003754;28;20428;-51
2022/05/11 11:56:20;;;;;;;7.45;5.43;;;;;;;;;;5004353;28;20468;-52
2022/05/11 11:58:47;;;;;;;7.35;5.43;;;;;;;;;;5007053;28;20438;-49
2022/05/11 12:01:15;;;;;;;7.10;5.60;;;;;;;;;;5008049;28;20423;-54
2022/05/11 12:03:52;;;;;;;6.25;5.47;;;;;;;;;;5008470;28;20400;-51
2022/05/11 12:17:33;;;;;;;6.60;4.85;;;;;;;;;;5004574;28;20388;-55
2022/05/11 12:20:02;;;;;;;7.25;4.63;;;;;;;;;;5004689;28;20617;-56
2022/05/11 12:22:29;;;;;;;7.97;5.55;;;;;;;;;;5005981;28;20393;-55
2022/05/11 12:25:00;;;;;;;6.93;5.30;;;;;;;;;;5007095;28;20472;-54
2022/05/11 12:27:28;;;;;;;7.35;5.03;;;;;;;;;;5005278;28;21013;-50
2022/05/11 12:29:57;;;;;;;7.93;4.55;;;;;;;;;;5006706;28;20639;-53
2022/05/11 12:32:32;;;;;;;6.70;4.57;;;;;;;;;;5007498;28;20696;-54
2022/05/11 12:35:07;;;;;;;8.27;5.00;;;;;;;;;;5007333;28;20769;-53
2022/05/11 12:37:36;;;;;;;5.70;4.80;;;;;;;;;;5004390;28;20389;-53
2022/05/11 12:40:07;;;;;;;6.53;4.72;;;;;;;;;;5004154;28;20473;-56
2022/05/11 12:42:36;;;;;;;8.55;4.80;;;;;;;;;;5005037;28;20381;-55
2022/05/11 12:45:02;;;;;;;10.05;5.13;;;;;;;;;;5003328;28;20818;-53
2022/05/11 12:47:28;;;;;;;6.50;4.20;;;;;;;;;;5003264;28;20412;-55
2022/05/11 12:49:54;;;;;;;6.68;4.13;;;;;;;;;;5004362;28;20404;-56
2022/05/11 12:52:20;;;;;;;7.68;4.45;;;;;;;;;;5007266;28;20413;-55
2022/05/11 12:55:01;;;;;;;5.18;3.72;;;;;;;;;;5026103;28;20541;-56
2022/05/11 12:57:35;;;;;;;4.30;3.55;;;;;;;;;;5008036;28;20380;-52
2022/05/11 13:00:01;;;;;;;6.40;4.30;;;;;;;;;;5007393;28;20414;-56
2022/05/11 13:02:32;;;;;;;5.93;3.92;;;;;;;;;;5001940;28;20431;-53
2022/05/11 13:05:02;;;;;;;8.18;4.00;;;;;;;;;;5022495;28;20391;-55
2022/05/11 13:07:34;;;;;;;6.15;3.80;;;;;;;;;;5005030;28;20384;-52
2022/05/11 13:10:01;;;;;;;5.70;3.95;;;;;;;;;;5002879;28;20395;-52
2022/05/11 13:12:27;;;;;;;7.00;3.60;;;;;;;;;;5002513;28;20470;-56
2022/05/11 13:14:55;;;;;;;8.23;3.92;;;;;;;;;;5022980;28;20685;-55
2022/05/11 13:17:27;;;;;;;7.10;3.63;;;;;;;;;;5005615;28;20577;-51
2022/05/11 13:20:01;;;;;;;8.23;3.35;;;;;;;;;;5007062;28;20834;-54
2022/05/11 13:22:30;;;;;;;9.45;3.60;;;;;;;;;;5025208;28;20399;-52
2022/05/11 13:25:04;;;;;;;8.37;3.43;;;;;;;;;;5023914;28;20405;-55
2022/05/11 13:27:45;;;;;;;7.53;3.25;;;;;;;;;;5024508;28;20394;-56
2022/05/11 13:30:17;;;;;;;5.45;3.15;;;;;;;;;;5005616;28;20685;-53
2022/05/11 13:32:45;;;;;;;5.57;3.00;;;;;;;;;;5026648;28;20523;-55
2022/05/11 13:35:26;;;;;;;9.20;3.13;;;;;;;;;;5009580;28;20817;-54
2022/05/11 13:37:55;;;;;;;7.50;3.13;;;;;;;;;;5008537;28;20836;-50
2022/05/11 13:40:35;;;;;;;8.82;3.08;;;;;;;;;;5009881;28;20771;-53
2022/05/11 13:43:02;;;;;;;9.60;2.67;;;;;;;;;;5025969;28;20398;-56
2022/05/11 13:45:28;;;;;;;7.13;2.70;;;;;;;;;;5023638;28;20940;-55
2022/05/11 13:48:15;;;;;;;6.15;2.63;;;;;;;;;;5007353;28;20402;-56
2022/05/11 13:50:45;;;;;;;5.67;3.20;;;;;;;;;;5024736;28;20386;-53
2022/05/11 13:53:11;;;;;;;6.82;3.15;;;;;;;;;;5025454;28;20654;-56
2022/05/11 13:55:42;;;;;;;5.70;2.83;;;;;;;;;;5006159;28;21097;-52
2022/05/11 13:58:21;;;;;;;6.93;2.80;;;;;;;;;;5006224;28;20383;-54
2022/05/11 14:00:47;;;;;;;5.35;2.38;;;;;;;;;;5008431;28;20414;-54
2022/05/11 14:03:14;;;;;;;4.10;2.25;;;;;;;;;;5007659;28;20823;-51
2022/05/11 14:05:40;;;;;;;3.75;2.22;;;;;;;;;;5008757;28;20518;-56
2022/05/11 14:08:07;;;;;;;3.28;2.45;;;;;;;;;;5025628;28;20470;-54
2022/05/11 14:10:33;;;;;;;6.03;2.50;;;;;;;;;;5007841;28;20402;-57
2022/05/11 14:12:59;;;;;;;6.67;2.60;;;;;;;;;;5009801;28;20449;-54
2022/05/11 14:15:25;;;;;;;6.30;2.60;;;;;;;;;;5009965;28;20399;-53
2022/05/11 14:17:51;;;;;;;6.65;2.53;;;;;;;;;;5009811;28;20376;-55
2022/05/11 14:20:22;;;;;;;6.63;2.60;;;;;;;;;;5007158;28;20670;-51
2022/05/11 14:22:48;;;;;;;6.50;3.00;;;;;;;;;;5003686;28;20895;-51
2022/05/11 14:25:15;;;;;;;4.07;2.17;;;;;;;;;;5004471;28;20802;-51
2022/05/11 14:27:41;;;;;;;4.00;2.25;;;;;;;;;;5005025;28;20667;-55
2022/05/11 14:30:09;;;;;;;6.18;2.33;;;;;;;;;;5008930;28;20392;-55
2022/05/11 14:32:43;;;;;;;7.73;2.40;;;;;;;;;;5010485;28;20403;-54
2022/05/11 14:35:11;;;;;;;7.38;2.47;;;;;;;;;;5010347;28;20398;-56
2022/05/11 14:37:38;;;;;;;6.88;2.20;;;;;;;;;;5010079;28;20821;-56
2022/05/11 14:40:05;;;;;;;8.43;2.50;;;;;;;;;;5027008;28;20395;-55
2022/05/11 14:42:43;;;;;;;7.60;2.53;;;;;;;;;;5009369;28;20395;-55
2022/05/11 14:45:09;;;;;;;7.05;2.20;;;;;;;;;;5007270;28;20391;-51
2022/05/11 14:47:36;;;;;;;5.25;2.08;;;;;;;;;;5004776;28;20387;-53
2022/05/11 14:50:04;;;;;;;5.90;2.20;;;;;;;;;;5005774;28;20494;-53
2022/05/11 14:52:29;;;;;;;6.68;2.20;;;;;;;;;;5022308;28;20407;-56
2022/05/11 14:54:55;;;;;;;5.63;2.20;;;;;;;;;;5020649;28;20762;-56
2022/05/11 15:03:26;;;;;;;6.65;2.13;;;;;;;;;;5011438;28;20431;-53
2022/05/11 15:05:52;;;;;;;5.45;2.13;;;;;;;;;;4993102;28;20380;-54
2022/05/11 15:08:19;;;;;;;7.35;2.10;;;;;;;;;;5022695;28;20386;-51
2022/05/11 15:10:45;;;;;;;6.17;1.93;;;;;;;;;;4996604;28;20453;-54
2022/05/11 15:13:44;;;;;;;6.60;2.07;;;;;;;;;;5008839;28;20456;-53
2022/05/11 15:16:11;;;;;;;8.07;2.03;;;;;;;;;;5007937;28;20377;-52
2022/05/11 15:18:37;;;;;;;7.30;2.20;;;;;;;;;;5021965;28;20672;-53
2022/05/11 15:21:04;;;;;;;4.85;2.00;;;;;;;;;;5022495;28;20457;-53
2022/05/11 15:23:30;;;;;;;6.72;2.30;;;;;;;;;;5022049;28;20397;-53
2022/05/11 15:25:57;;;;;;;6.50;1.88;;;;;;;;;;5025218;28;20499;-53
2022/05/11 15:28:23;;;;;;;5.00;1.95;;;;;;;;;;5025173;28;20380;-55
2022/05/11 15:30:49;;;;;;;5.28;1.90;;;;;;;;;;5026833;28;20461;-54
2022/05/11 15:33:18;;;;;;;4.33;1.70;;;;;;;;;;5026915;28;20439;-50
2022/05/11 15:35:45;;;;;;;8.95;2.10;;;;;;;;;;5025063;28;21107;-54
2022/05/11 15:38:13;;;;;;;6.97;2.08;;;;;;;;;;5028648;28;21075;-56
2022/05/11 15:40:40;;;;;;;6.63;1.50;;;;;;;;;;5010809;28;20392;-52
2022/05/11 15:43:07;;;;;;;4.87;1.73;;;;;;;;;;5025804;28;21005;-55
2022/05/11 15:45:33;;;;;;;4.55;1.70;;;;;;;;;;5027864;28;20393;-54
2022/05/11 15:48:02;;;;;;;6.03;1.73;;;;;;;;;;5027764;28;20542;-55
2022/05/11 15:50:28;;;;;;;6.45;1.83;;;;;;;;;;5011288;28;20421;-54
2022/05/11 15:52:55;;;;;;;5.28;1.73;;;;;;;;;;5012042;28;20460;-54
2022/05/11 15:55:25;;;;;;;6.78;1.85;;;;;;;;;;5026016;28;20397;-55